sensor_id;sensor_type;location;lat;lon;timestamp;P1;durP1;ratioP1;P2;durP2;ratioP2
5869;SDS011;2961;47.702;9.410;2022-08-19T00:01:19;10.63;;;9.40;;
5869;SDS011;2961;47.702;9.410;2022-08-19T00:03:47;11.23;;;10.23;;
5869;SDS011;2961;47.702;9.410;2022-08-19T00:06:14;13.37;;;11.33;;
5869;SDS011;2961;47.702;9.410;2022-08-19T00:08:42;16.70;;;14.53;;
5869;SDS011;2961;47.702;9.410;2022-08-19T00:11:10;17.07;;;15.27;;
5869;SDS011;2961;47.702;9.410;2022-08-19T00:13:37;20.07;;;18.00;;
5869;SDS011;2961;47.702;9.410;2022-08-19T00:16:05;22.57;;;19.33;;
5869;SDS011;2961;47.702;9.410;2022-08-19T00:18:32;23.47;;;19.97;;
5869;SDS011;2961;47.702;9.410;2022-08-19T00:21:00;23.70;;;19.50;;
5869;SDS011;2961;47.702;9.410;2022-08-19T00:23:28;21.40;;;18.33;;
5869;SDS011;2961;47.702;9.410;2022-08-19T00:25:55;27.07;;;17.47;;
5869;SDS011;2961;47.702;9.410;2022-08-19T00:28:22;20.23;;;17.87;;
5869;SDS011;2961;47.702;9.410;2022-08-19T00:30:49;23.70;;;18.20;;
5869;SDS011;2961;47.702;9.410;2022-08-19T00:33:16;19.27;;;17.20;;
5869;SDS011;2961;47.702;9.410;2022-08-19T00:35:43;20.33;;;18.13;;
5869;SDS011;2961;47.702;9.410;2022-08-19T00:38:11;19.17;;;17.00;;
5869;SDS011;2961;47.702;9.410;2022-08-19T00:40:38;27.07;;;19.57;;
5869;SDS011;2961;47.702;9.410;2022-08-19T00:43:07;19.57;;;17.60;;
5869;SDS011;2961;47.702;9.410;2022-08-19T00:45:35;22.50;;;20.10;;
5869;SDS011;2961;47.702;9.410;2022-08-19T00:48:02;27.60;;;20.20;;
5869;SDS011;2961;47.702;9.410;2022-08-19T00:50:30;28.87;;;22.10;;
5869;SDS011;2961;47.702;9.410;2022-08-19T00:52:57;28.40;;;21.57;;
5869;SDS011;2961;47.702;9.410;2022-08-19T00:55:26;32.13;;;23.20;;
5869;SDS011;2961;47.702;9.410;2022-08-19T00:57:56;25.20;;;21.40;;
5869;SDS011;2961;47.702;9.410;2022-08-19T01:00:25;27.37;;;23.60;;
5869;SDS011;2961;47.702;9.410;2022-08-19T01:02:54;28.93;;;22.67;;
5869;SDS011;2961;47.702;9.410;2022-08-19T01:05:22;31.50;;;22.67;;
5869;SDS011;2961;47.702;9.410;2022-08-19T01:07:52;29.00;;;24.67;;
5869;SDS011;2961;47.702;9.410;2022-08-19T01:10:21;30.30;;;24.17;;
5869;SDS011;2961;47.702;9.410;2022-08-19T01:12:52;31.77;;;24.57;;
5869;SDS011;2961;47.702;9.410;2022-08-19T01:15:23;28.37;;;24.37;;
5869;SDS011;2961;47.702;9.410;2022-08-19T01:17:56;28.10;;;23.10;;
5869;SDS011;2961;47.702;9.410;2022-08-19T01:20:25;31.37;;;26.23;;
5869;SDS011;2961;47.702;9.410;2022-08-19T01:22:53;34.10;;;26.60;;
5869;SDS011;2961;47.702;9.410;2022-08-19T01:25:24;31.17;;;25.63;;
5869;SDS011;2961;47.702;9.410;2022-08-19T01:27:54;29.97;;;24.23;;
5869;SDS011;2961;47.702;9.410;2022-08-19T01:30:23;31.23;;;27.17;;
5869;SDS011;2961;47.702;9.410;2022-08-19T01:32:53;35.13;;;27.93;;
5869;SDS011;2961;47.702;9.410;2022-08-19T01:35:21;33.53;;;27.07;;
5869;SDS011;2961;47.702;9.410;2022-08-19T01:37:50;35.53;;;27.17;;
5869;SDS011;2961;47.702;9.410;2022-08-19T01:40:21;31.70;;;25.30;;
5869;SDS011;2961;47.702;9.410;2022-08-19T01:42:51;28.47;;;24.80;;
5869;SDS011;2961;47.702;9.410;2022-08-19T01:45:19;35.33;;;27.80;;
5869;SDS011;2961;47.702;9.410;2022-08-19T01:47:47;30.93;;;26.20;;
5869;SDS011;2961;47.702;9.410;2022-08-19T01:50:14;33.47;;;26.70;;
5869;SDS011;2961;47.702;9.410;2022-08-19T01:52:42;33.80;;;25.80;;
5869;SDS011;2961;47.702;9.410;2022-08-19T01:55:12;35.13;;;27.57;;
5869;SDS011;2961;47.702;9.410;2022-08-19T01:57:42;38.50;;;28.23;;
5869;SDS011;2961;47.702;9.410;2022-08-19T02:00:14;34.43;;;26.40;;
5869;SDS011;2961;47.702;9.410;2022-08-19T02:02:42;31.27;;;26.70;;
5869;SDS011;2961;47.702;9.410;2022-08-19T02:05:09;32.33;;;26.27;;
5869;SDS011;2961;47.702;9.410;2022-08-19T02:07:38;31.17;;;25.83;;
5869;SDS011;2961;47.702;9.410;2022-08-19T02:10:07;36.93;;;27.80;;
5869;SDS011;2961;47.702;9.410;2022-08-19T02:12:38;34.30;;;28.23;;
5869;SDS011;2961;47.702;9.410;2022-08-19T02:15:05;36.90;;;26.40;;
5869;SDS011;2961;47.702;9.410;2022-08-19T02:17:32;36.00;;;27.10;;
5869;SDS011;2961;47.702;9.410;2022-08-19T02:19:59;37.30;;;25.07;;
5869;SDS011;2961;47.702;9.410;2022-08-19T02:22:26;35.70;;;27.13;;
5869;SDS011;2961;47.702;9.410;2022-08-19T02:24:53;38.20;;;26.37;;
5869;SDS011;2961;47.702;9.410;2022-08-19T02:27:21;34.90;;;26.20;;
5869;SDS011;2961;47.702;9.410;2022-08-19T02:29:50;33.10;;;27.03;;
5869;SDS011;2961;47.702;9.410;2022-08-19T02:32:18;38.13;;;27.43;;
5869;SDS011;2961;47.702;9.410;2022-08-19T02:34:45;42.17;;;26.57;;
5869;SDS011;2961;47.702;9.410;2022-08-19T02:37:12;36.40;;;26.90;;
5869;SDS011;2961;47.702;9.410;2022-08-19T02:39:53;36.47;;;25.33;;
5869;SDS011;2961;47.702;9.410;2022-08-19T02:42:20;33.57;;;25.63;;
5869;SDS011;2961;47.702;9.410;2022-08-19T02:44:47;36.73;;;25.90;;
5869;SDS011;2961;47.702;9.410;2022-08-19T02:47:16;33.23;;;24.23;;
5869;SDS011;2961;47.702;9.410;2022-08-19T02:49:43;33.37;;;25.60;;
5869;SDS011;2961;47.702;9.410;2022-08-19T02:52:10;36.07;;;26.20;;
5869;SDS011;2961;47.702;9.410;2022-08-19T02:54:37;31.40;;;24.50;;
5869;SDS011;2961;47.702;9.410;2022-08-19T02:57:04;34.70;;;26.37;;
5869;SDS011;2961;47.702;9.410;2022-08-19T02:59:32;32.37;;;23.80;;
5869;SDS011;2961;47.702;9.410;2022-08-19T03:02:01;29.23;;;22.93;;
5869;SDS011;2961;47.702;9.410;2022-08-19T03:04:28;39.73;;;27.40;;
5869;SDS011;2961;47.702;9.410;2022-08-19T03:06:55;39.73;;;27.60;;
5869;SDS011;2961;47.702;9.410;2022-08-19T03:09:22;36.30;;;25.80;;
5869;SDS011;2961;47.702;9.410;2022-08-19T03:11:49;43.10;;;27.90;;
5869;SDS011;2961;47.702;9.410;2022-08-19T03:14:16;32.30;;;24.33;;
5869;SDS011;2961;47.702;9.410;2022-08-19T03:16:44;36.10;;;25.20;;
5869;SDS011;2961;47.702;9.410;2022-08-19T03:19:15;31.27;;;23.13;;
5869;SDS011;2961;47.702;9.410;2022-08-19T03:21:43;36.33;;;26.83;;
5869;SDS011;2961;47.702;9.410;2022-08-19T03:24:11;38.53;;;28.63;;
5869;SDS011;2961;47.702;9.410;2022-08-19T03:26:38;33.23;;;23.70;;
5869;SDS011;2961;47.702;9.410;2022-08-19T03:29:06;34.13;;;24.13;;
5869;SDS011;2961;47.702;9.410;2022-08-19T03:31:33;34.20;;;25.00;;
5869;SDS011;2961;47.702;9.410;2022-08-19T03:34:01;31.67;;;21.70;;
5869;SDS011;2961;47.702;9.410;2022-08-19T03:36:30;29.80;;;22.90;;
5869;SDS011;2961;47.702;9.410;2022-08-19T03:38:58;36.30;;;26.13;;
5869;SDS011;2961;47.702;9.410;2022-08-19T03:41:27;29.57;;;22.77;;
5869;SDS011;2961;47.702;9.410;2022-08-19T03:43:56;34.03;;;22.63;;
5869;SDS011;2961;47.702;9.410;2022-08-19T03:46:24;30.80;;;22.17;;
5869;SDS011;2961;47.702;9.410;2022-08-19T03:48:53;29.40;;;22.60;;
5869;SDS011;2961;47.702;9.410;2022-08-19T03:51:25;31.87;;;23.60;;
5869;SDS011;2961;47.702;9.410;2022-08-19T03:53:54;32.70;;;22.03;;
5869;SDS011;2961;47.702;9.410;2022-08-19T03:56:22;27.73;;;21.30;;
5869;SDS011;2961;47.702;9.410;2022-08-19T03:58:50;40.23;;;22.67;;
5869;SDS011;2961;47.702;9.410;2022-08-19T04:01:18;37.07;;;22.40;;
5869;SDS011;2961;47.702;9.410;2022-08-19T04:03:48;37.60;;;22.57;;
5869;SDS011;2961;47.702;9.410;2022-08-19T04:06:16;36.23;;;21.80;;
5869;SDS011;2961;47.702;9.410;2022-08-19T04:08:45;36.27;;;22.90;;
5869;SDS011;2961;47.702;9.410;2022-08-19T04:11:15;38.43;;;23.03;;
5869;SDS011;2961;47.702;9.410;2022-08-19T04:13:45;32.00;;;22.43;;
5869;SDS011;2961;47.702;9.410;2022-08-19T04:16:12;33.53;;;22.97;;
5869;SDS011;2961;47.702;9.410;2022-08-19T04:18:39;36.07;;;24.30;;
5869;SDS011;2961;47.702;9.410;2022-08-19T04:21:07;37.30;;;22.83;;
5869;SDS011;2961;47.702;9.410;2022-08-19T04:23:41;38.27;;;25.40;;
5869;SDS011;2961;47.702;9.410;2022-08-19T04:26:11;38.90;;;25.30;;
5869;SDS011;2961;47.702;9.410;2022-08-19T04:28:40;39.10;;;24.93;;
5869;SDS011;2961;47.702;9.410;2022-08-19T04:31:12;40.73;;;26.33;;
5869;SDS011;2961;47.702;9.410;2022-08-19T04:33:39;34.20;;;22.17;;
5869;SDS011;2961;47.702;9.410;2022-08-19T04:36:07;39.03;;;23.70;;
5869;SDS011;2961;47.702;9.410;2022-08-19T04:38:35;37.13;;;24.17;;
5869;SDS011;2961;47.702;9.410;2022-08-19T04:41:02;36.03;;;22.90;;
5869;SDS011;2961;47.702;9.410;2022-08-19T04:44:03;35.60;;;23.70;;
5869;SDS011;2961;47.702;9.410;2022-08-19T04:46:30;36.23;;;22.43;;
5869;SDS011;2961;47.702;9.410;2022-08-19T04:48:57;35.77;;;23.10;;
5869;SDS011;2961;47.702;9.410;2022-08-19T04:51:25;39.30;;;25.77;;
5869;SDS011;2961;47.702;9.410;2022-08-19T04:53:52;46.17;;;27.53;;
5869;SDS011;2961;47.702;9.410;2022-08-19T04:56:19;47.77;;;27.03;;
5869;SDS011;2961;47.702;9.410;2022-08-19T04:58:47;50.27;;;27.43;;
5869;SDS011;2961;47.702;9.410;2022-08-19T05:01:19;39.67;;;26.10;;
5869;SDS011;2961;47.702;9.410;2022-08-19T05:03:48;47.43;;;26.60;;
5869;SDS011;2961;47.702;9.410;2022-08-19T05:06:16;43.57;;;25.77;;
5869;SDS011;2961;47.702;9.410;2022-08-19T05:08:45;41.43;;;25.57;;
5869;SDS011;2961;47.702;9.410;2022-08-19T05:11:13;43.10;;;27.77;;
5869;SDS011;2961;47.702;9.410;2022-08-19T05:13:42;48.17;;;27.90;;
5869;SDS011;2961;47.702;9.410;2022-08-19T05:16:10;46.13;;;26.60;;
5869;SDS011;2961;47.702;9.410;2022-08-19T05:18:40;45.43;;;28.27;;
5869;SDS011;2961;47.702;9.410;2022-08-19T05:21:26;47.43;;;24.73;;
5869;SDS011;2961;47.702;9.410;2022-08-19T05:24:11;51.70;;;29.43;;
5869;SDS011;2961;47.702;9.410;2022-08-19T05:26:40;56.83;;;29.83;;
5869;SDS011;2961;47.702;9.410;2022-08-19T05:29:08;43.90;;;25.40;;
5869;SDS011;2961;47.702;9.410;2022-08-19T05:31:36;51.20;;;27.40;;
5869;SDS011;2961;47.702;9.410;2022-08-19T05:34:05;57.70;;;29.80;;
5869;SDS011;2961;47.702;9.410;2022-08-19T05:36:34;44.90;;;27.70;;
5869;SDS011;2961;47.702;9.410;2022-08-19T05:39:04;51.77;;;31.07;;
5869;SDS011;2961;47.702;9.410;2022-08-19T05:41:31;56.83;;;29.63;;
5869;SDS011;2961;47.702;9.410;2022-08-19T05:44:00;51.80;;;29.40;;
5869;SDS011;2961;47.702;9.410;2022-08-19T05:46:31;58.20;;;30.23;;
5869;SDS011;2961;47.702;9.410;2022-08-19T05:48:58;54.43;;;30.27;;
5869;SDS011;2961;47.702;9.410;2022-08-19T05:51:26;57.57;;;31.63;;
5869;SDS011;2961;47.702;9.410;2022-08-19T05:53:53;61.10;;;31.53;;
5869;SDS011;2961;47.702;9.410;2022-08-19T05:56:19;58.97;;;32.23;;
5869;SDS011;2961;47.702;9.410;2022-08-19T05:58:46;62.37;;;32.47;;
5869;SDS011;2961;47.702;9.410;2022-08-19T06:01:16;57.90;;;35.90;;
5869;SDS011;2961;47.702;9.410;2022-08-19T06:03:44;58.87;;;33.57;;
5869;SDS011;2961;47.702;9.410;2022-08-19T06:06:14;55.07;;;32.10;;
5869;SDS011;2961;47.702;9.410;2022-08-19T06:08:45;60.50;;;33.93;;
5869;SDS011;2961;47.702;9.410;2022-08-19T06:11:16;73.73;;;36.50;;
5869;SDS011;2961;47.702;9.410;2022-08-19T06:13:46;62.57;;;33.47;;
5869;SDS011;2961;47.702;9.410;2022-08-19T06:16:16;63.33;;;34.83;;
5869;SDS011;2961;47.702;9.410;2022-08-19T06:18:47;62.03;;;35.30;;
5869;SDS011;2961;47.702;9.410;2022-08-19T06:21:15;61.00;;;34.83;;
5869;SDS011;2961;47.702;9.410;2022-08-19T06:23:42;63.23;;;37.10;;
5869;SDS011;2961;47.702;9.410;2022-08-19T06:26:12;62.40;;;35.97;;
5869;SDS011;2961;47.702;9.410;2022-08-19T06:28:39;65.47;;;35.03;;
5869;SDS011;2961;47.702;9.410;2022-08-19T06:31:11;58.93;;;33.53;;
5869;SDS011;2961;47.702;9.410;2022-08-19T06:33:39;75.23;;;37.10;;
5869;SDS011;2961;47.702;9.410;2022-08-19T06:36:06;60.37;;;35.77;;
5869;SDS011;2961;47.702;9.410;2022-08-19T06:38:33;68.07;;;36.07;;
5869;SDS011;2961;47.702;9.410;2022-08-19T06:41:01;69.77;;;38.30;;
5869;SDS011;2961;47.702;9.410;2022-08-19T06:43:30;75.83;;;38.03;;
5869;SDS011;2961;47.702;9.410;2022-08-19T06:45:57;63.63;;;37.40;;
5869;SDS011;2961;47.702;9.410;2022-08-19T06:48:24;73.17;;;38.10;;
5869;SDS011;2961;47.702;9.410;2022-08-19T06:50:51;67.77;;;36.90;;
5869;SDS011;2961;47.702;9.410;2022-08-19T06:53:18;83.70;;;39.30;;
5869;SDS011;2961;47.702;9.410;2022-08-19T06:55:45;68.40;;;37.67;;
5869;SDS011;2961;47.702;9.410;2022-08-19T06:58:11;78.50;;;42.37;;
5869;SDS011;2961;47.702;9.410;2022-08-19T07:00:40;71.80;;;38.47;;
5869;SDS011;2961;47.702;9.410;2022-08-19T07:03:07;70.93;;;38.17;;
5869;SDS011;2961;47.702;9.410;2022-08-19T07:05:37;82.67;;;41.83;;
5869;SDS011;2961;47.702;9.410;2022-08-19T07:08:05;86.20;;;42.30;;
5869;SDS011;2961;47.702;9.410;2022-08-19T07:10:32;85.37;;;42.33;;
5869;SDS011;2961;47.702;9.410;2022-08-19T07:13:00;84.37;;;43.13;;
5869;SDS011;2961;47.702;9.410;2022-08-19T07:15:27;81.27;;;40.90;;
5869;SDS011;2961;47.702;9.410;2022-08-19T07:17:55;92.60;;;44.50;;
5869;SDS011;2961;47.702;9.410;2022-08-19T07:20:22;80.63;;;41.33;;
5869;SDS011;2961;47.702;9.410;2022-08-19T07:22:49;83.40;;;43.50;;
5869;SDS011;2961;47.702;9.410;2022-08-19T07:25:16;83.93;;;44.53;;
5869;SDS011;2961;47.702;9.410;2022-08-19T07:27:43;83.27;;;42.03;;
5869;SDS011;2961;47.702;9.410;2022-08-19T07:30:10;84.37;;;43.07;;
5869;SDS011;2961;47.702;9.410;2022-08-19T07:32:38;95.30;;;46.50;;
5869;SDS011;2961;47.702;9.410;2022-08-19T07:35:07;94.53;;;47.53;;
5869;SDS011;2961;47.702;9.410;2022-08-19T07:37:35;89.30;;;41.90;;
5869;SDS011;2961;47.702;9.410;2022-08-19T07:40:03;86.73;;;44.73;;
5869;SDS011;2961;47.702;9.410;2022-08-19T07:42:31;84.80;;;42.93;;
5869;SDS011;2961;47.702;9.410;2022-08-19T07:44:58;79.77;;;41.57;;
5869;SDS011;2961;47.702;9.410;2022-08-19T07:47:25;82.67;;;43.63;;
5869;SDS011;2961;47.702;9.410;2022-08-19T07:49:53;99.30;;;45.57;;
5869;SDS011;2961;47.702;9.410;2022-08-19T07:52:21;81.00;;;42.70;;
5869;SDS011;2961;47.702;9.410;2022-08-19T07:54:48;81.70;;;42.17;;
5869;SDS011;2961;47.702;9.410;2022-08-19T07:57:16;89.13;;;44.83;;
5869;SDS011;2961;47.702;9.410;2022-08-19T07:59:44;84.50;;;43.87;;
5869;SDS011;2961;47.702;9.410;2022-08-19T08:02:11;80.67;;;41.43;;
5869;SDS011;2961;47.702;9.410;2022-08-19T08:04:37;74.53;;;39.80;;
5869;SDS011;2961;47.702;9.410;2022-08-19T08:07:23;86.30;;;44.10;;
5869;SDS011;2961;47.702;9.410;2022-08-19T08:10:07;80.93;;;43.23;;
5869;SDS011;2961;47.702;9.410;2022-08-19T08:12:35;92.40;;;44.50;;
5869;SDS011;2961;47.702;9.410;2022-08-19T08:15:07;78.03;;;41.47;;
5869;SDS011;2961;47.702;9.410;2022-08-19T08:17:36;90.77;;;43.33;;
5869;SDS011;2961;47.702;9.410;2022-08-19T08:20:03;90.57;;;45.17;;
5869;SDS011;2961;47.702;9.410;2022-08-19T08:22:34;97.67;;;46.17;;
5869;SDS011;2961;47.702;9.410;2022-08-19T08:25:19;95.20;;;46.40;;
5869;SDS011;2961;47.702;9.410;2022-08-19T08:27:47;84.00;;;44.03;;
5869;SDS011;2961;47.702;9.410;2022-08-19T08:30:17;85.70;;;42.73;;
5869;SDS011;2961;47.702;9.410;2022-08-19T08:32:45;86.87;;;43.07;;
5869;SDS011;2961;47.702;9.410;2022-08-19T08:35:13;96.17;;;47.10;;
5869;SDS011;2961;47.702;9.410;2022-08-19T08:37:43;95.83;;;45.93;;
5869;SDS011;2961;47.702;9.410;2022-08-19T08:40:14;97.57;;;46.43;;
5869;SDS011;2961;47.702;9.410;2022-08-19T08:42:48;91.20;;;46.97;;
5869;SDS011;2961;47.702;9.410;2022-08-19T08:45:23;87.03;;;46.00;;
5869;SDS011;2961;47.702;9.410;2022-08-19T08:47:51;98.60;;;47.90;;
5869;SDS011;2961;47.702;9.410;2022-08-19T08:50:23;87.10;;;46.53;;
5869;SDS011;2961;47.702;9.410;2022-08-19T08:52:56;104.03;;;47.70;;
5869;SDS011;2961;47.702;9.410;2022-08-19T08:55:26;101.43;;;52.77;;
5869;SDS011;2961;47.702;9.410;2022-08-19T08:57:55;156.70;;;80.67;;
5869;SDS011;2961;47.702;9.410;2022-08-19T09:00:26;102.90;;;55.43;;
5869;SDS011;2961;47.702;9.410;2022-08-19T09:02:56;215.30;;;74.50;;
5869;SDS011;2961;47.702;9.410;2022-08-19T09:05:25;193.43;;;77.33;;
5869;SDS011;2961;47.702;9.410;2022-08-19T09:07:58;158.57;;;61.90;;
5869;SDS011;2961;47.702;9.410;2022-08-19T09:10:29;132.30;;;57.73;;
5869;SDS011;2961;47.702;9.410;2022-08-19T09:13:04;174.50;;;65.43;;
5869;SDS011;2961;47.702;9.410;2022-08-19T09:15:39;102.23;;;49.87;;
5869;SDS011;2961;47.702;9.410;2022-08-19T09:18:10;100.97;;;46.37;;
5869;SDS011;2961;47.702;9.410;2022-08-19T09:20:38;91.20;;;47.00;;
5869;SDS011;2961;47.702;9.410;2022-08-19T09:23:06;89.73;;;50.30;;
5869;SDS011;2961;47.702;9.410;2022-08-19T09:25:33;90.83;;;44.23;;
5869;SDS011;2961;47.702;9.410;2022-08-19T09:28:00;94.87;;;45.23;;
5869;SDS011;2961;47.702;9.410;2022-08-19T09:30:29;90.63;;;44.67;;
5869;SDS011;2961;47.702;9.410;2022-08-19T09:32:57;102.40;;;49.23;;
5869;SDS011;2961;47.702;9.410;2022-08-19T09:35:26;89.97;;;46.37;;
5869;SDS011;2961;47.702;9.410;2022-08-19T09:37:54;143.37;;;60.93;;
5869;SDS011;2961;47.702;9.410;2022-08-19T09:40:23;127.60;;;58.30;;
5869;SDS011;2961;47.702;9.410;2022-08-19T09:42:51;104.87;;;48.73;;
5869;SDS011;2961;47.702;9.410;2022-08-19T09:45:18;92.83;;;45.60;;
5869;SDS011;2961;47.702;9.410;2022-08-19T09:47:47;101.70;;;47.37;;
5869;SDS011;2961;47.702;9.410;2022-08-19T09:50:16;109.30;;;51.03;;
5869;SDS011;2961;47.702;9.410;2022-08-19T09:52:43;84.17;;;44.23;;
5869;SDS011;2961;47.702;9.410;2022-08-19T09:55:10;84.43;;;44.50;;
5869;SDS011;2961;47.702;9.410;2022-08-19T09:57:39;88.83;;;43.77;;
5869;SDS011;2961;47.702;9.410;2022-08-19T10:00:07;100.70;;;53.77;;
5869;SDS011;2961;47.702;9.410;2022-08-19T10:02:35;101.10;;;51.40;;
5869;SDS011;2961;47.702;9.410;2022-08-19T10:05:02;122.93;;;58.50;;
5869;SDS011;2961;47.702;9.410;2022-08-19T10:07:47;80.33;;;43.23;;
5869;SDS011;2961;47.702;9.410;2022-08-19T10:10:14;145.63;;;65.70;;
5869;SDS011;2961;47.702;9.410;2022-08-19T10:12:43;111.70;;;57.40;;
5869;SDS011;2961;47.702;9.410;2022-08-19T10:15:12;86.17;;;46.60;;
5869;SDS011;2961;47.702;9.410;2022-08-19T10:17:39;75.27;;;44.97;;
5869;SDS011;2961;47.702;9.410;2022-08-19T10:20:06;79.53;;;43.17;;
5869;SDS011;2961;47.702;9.410;2022-08-19T10:22:34;75.23;;;41.77;;
5869;SDS011;2961;47.702;9.410;2022-08-19T10:25:02;84.57;;;45.40;;
5869;SDS011;2961;47.702;9.410;2022-08-19T10:27:31;85.57;;;47.13;;
5869;SDS011;2961;47.702;9.410;2022-08-19T10:29:59;96.40;;;51.40;;
5869;SDS011;2961;47.702;9.410;2022-08-19T10:32:26;89.60;;;50.47;;
5869;SDS011;2961;47.702;9.410;2022-08-19T10:34:54;82.77;;;43.70;;
5869;SDS011;2961;47.702;9.410;2022-08-19T10:37:21;90.23;;;47.47;;
5869;SDS011;2961;47.702;9.410;2022-08-19T10:39:48;87.70;;;46.30;;
5869;SDS011;2961;47.702;9.410;2022-08-19T10:42:36;86.13;;;45.33;;
5869;SDS011;2961;47.702;9.410;2022-08-19T10:45:05;88.80;;;46.77;;
5869;SDS011;2961;47.702;9.410;2022-08-19T10:47:34;90.63;;;46.73;;
5869;SDS011;2961;47.702;9.410;2022-08-19T10:50:02;83.07;;;44.97;;
5869;SDS011;2961;47.702;9.410;2022-08-19T10:52:48;85.30;;;43.37;;
5869;SDS011;2961;47.702;9.410;2022-08-19T10:55:16;104.70;;;47.20;;
5869;SDS011;2961;47.702;9.410;2022-08-19T10:58:02;78.77;;;46.40;;
5869;SDS011;2961;47.702;9.410;2022-08-19T11:00:30;79.43;;;43.60;;
5869;SDS011;2961;47.702;9.410;2022-08-19T11:03:11;84.93;;;46.00;;
5869;SDS011;2961;47.702;9.410;2022-08-19T11:05:38;83.63;;;43.50;;
5869;SDS011;2961;47.702;9.410;2022-08-19T11:08:05;79.20;;;42.83;;
5869;SDS011;2961;47.702;9.410;2022-08-19T11:10:37;71.53;;;40.80;;
5869;SDS011;2961;47.702;9.410;2022-08-19T11:13:07;70.70;;;41.50;;
5869;SDS011;2961;47.702;9.410;2022-08-19T11:15:35;68.90;;;39.60;;
5869;SDS011;2961;47.702;9.410;2022-08-19T11:18:03;69.47;;;39.77;;
5869;SDS011;2961;47.702;9.410;2022-08-19T11:20:30;73.90;;;40.23;;
5869;SDS011;2961;47.702;9.410;2022-08-19T11:22:57;68.80;;;38.37;;
5869;SDS011;2961;47.702;9.410;2022-08-19T11:25:24;68.40;;;38.70;;
5869;SDS011;2961;47.702;9.410;2022-08-19T11:27:51;62.53;;;37.07;;
5869;SDS011;2961;47.702;9.410;2022-08-19T11:30:18;64.57;;;37.27;;
5869;SDS011;2961;47.702;9.410;2022-08-19T11:32:46;63.70;;;37.20;;
5869;SDS011;2961;47.702;9.410;2022-08-19T11:35:13;64.77;;;34.37;;
5869;SDS011;2961;47.702;9.410;2022-08-19T11:37:40;60.60;;;33.77;;
5869;SDS011;2961;47.702;9.410;2022-08-19T11:40:08;59.03;;;33.53;;
5869;SDS011;2961;47.702;9.410;2022-08-19T11:42:35;52.60;;;33.37;;
5869;SDS011;2961;47.702;9.410;2022-08-19T11:45:21;53.70;;;31.40;;
5869;SDS011;2961;47.702;9.410;2022-08-19T11:47:49;53.67;;;33.97;;
5869;SDS011;2961;47.702;9.410;2022-08-19T11:50:16;70.50;;;35.83;;
5869;SDS011;2961;47.702;9.410;2022-08-19T11:52:43;56.07;;;33.77;;
5869;SDS011;2961;47.702;9.410;2022-08-19T11:55:11;58.53;;;36.30;;
5869;SDS011;2961;47.702;9.410;2022-08-19T11:57:38;63.70;;;36.90;;
5869;SDS011;2961;47.702;9.410;2022-08-19T12:00:06;62.30;;;37.72;;
5869;SDS011;2961;47.702;9.410;2022-08-19T12:02:35;55.13;;;34.07;;
5869;SDS011;2961;47.702;9.410;2022-08-19T12:05:03;51.67;;;33.67;;
5869;SDS011;2961;47.702;9.410;2022-08-19T12:07:31;53.13;;;31.77;;
5869;SDS011;2961;47.702;9.410;2022-08-19T12:09:58;55.67;;;29.37;;
5869;SDS011;2961;47.702;9.410;2022-08-19T12:12:25;51.93;;;29.67;;
5869;SDS011;2961;47.702;9.410;2022-08-19T12:14:53;42.17;;;28.73;;
5869;SDS011;2961;47.702;9.410;2022-08-19T12:17:23;38.70;;;26.70;;
5869;SDS011;2961;47.702;9.410;2022-08-19T12:19:50;41.03;;;27.47;;
5869;SDS011;2961;47.702;9.410;2022-08-19T12:22:18;41.20;;;26.33;;
5869;SDS011;2961;47.702;9.410;2022-08-19T12:25:03;35.17;;;24.70;;
5869;SDS011;2961;47.702;9.410;2022-08-19T12:27:31;38.90;;;26.00;;
5869;SDS011;2961;47.702;9.410;2022-08-19T12:29:58;33.80;;;24.13;;
5869;SDS011;2961;47.702;9.410;2022-08-19T12:32:26;34.80;;;24.77;;
5869;SDS011;2961;47.702;9.410;2022-08-19T12:34:54;35.70;;;25.40;;
5869;SDS011;2961;47.702;9.410;2022-08-19T12:37:22;37.93;;;26.37;;
5869;SDS011;2961;47.702;9.410;2022-08-19T12:39:49;38.33;;;27.40;;
5869;SDS011;2961;47.702;9.410;2022-08-19T12:42:16;41.30;;;27.00;;
5869;SDS011;2961;47.702;9.410;2022-08-19T12:44:43;36.57;;;27.23;;
5869;SDS011;2961;47.702;9.410;2022-08-19T12:47:11;44.07;;;28.60;;
5869;SDS011;2961;47.702;9.410;2022-08-19T12:49:39;39.63;;;29.60;;
5869;SDS011;2961;47.702;9.410;2022-08-19T12:52:07;47.77;;;31.40;;
5869;SDS011;2961;47.702;9.410;2022-08-19T12:54:37;36.13;;;27.23;;
5869;SDS011;2961;47.702;9.410;2022-08-19T12:57:05;34.97;;;26.40;;
5869;SDS011;2961;47.702;9.410;2022-08-19T12:59:32;34.50;;;27.60;;
5869;SDS011;2961;47.702;9.410;2022-08-19T13:02:03;34.37;;;24.80;;
5869;SDS011;2961;47.702;9.410;2022-08-19T13:04:31;33.40;;;25.20;;
5869;SDS011;2961;47.702;9.410;2022-08-19T13:07:00;35.93;;;25.77;;
5869;SDS011;2961;47.702;9.410;2022-08-19T13:09:26;39.30;;;29.03;;
5869;SDS011;2961;47.702;9.410;2022-08-19T13:11:55;39.60;;;30.50;;
5869;SDS011;2961;47.702;9.410;2022-08-19T13:14:22;45.00;;;33.30;;
5869;SDS011;2961;47.702;9.410;2022-08-19T13:16:49;42.00;;;33.80;;
5869;SDS011;2961;47.702;9.410;2022-08-19T13:19:15;45.00;;;32.80;;
5869;SDS011;2961;47.702;9.410;2022-08-19T13:21:45;47.43;;;35.47;;
5869;SDS011;2961;47.702;9.410;2022-08-19T13:24:16;52.93;;;40.33;;
5869;SDS011;2961;47.702;9.410;2022-08-19T13:26:43;49.10;;;38.03;;
5869;SDS011;2961;47.702;9.410;2022-08-19T13:29:11;46.53;;;36.40;;
5869;SDS011;2961;47.702;9.410;2022-08-19T13:31:56;47.83;;;33.20;;
5869;SDS011;2961;47.702;9.410;2022-08-19T13:34:40;51.07;;;37.33;;
5869;SDS011;2961;47.702;9.410;2022-08-19T13:37:06;48.17;;;36.23;;
5869;SDS011;2961;47.702;9.410;2022-08-19T13:39:34;60.37;;;42.10;;
5869;SDS011;2961;47.702;9.410;2022-08-19T13:42:01;57.50;;;40.77;;
5869;SDS011;2961;47.702;9.410;2022-08-19T13:44:31;58.03;;;39.40;;
5869;SDS011;2961;47.702;9.410;2022-08-19T13:47:00;53.20;;;36.23;;
5869;SDS011;2961;47.702;9.410;2022-08-19T13:49:30;62.87;;;40.50;;
5869;SDS011;2961;47.702;9.410;2022-08-19T13:51:57;52.77;;;36.93;;
5869;SDS011;2961;47.702;9.410;2022-08-19T13:54:24;64.00;;;43.10;;
5869;SDS011;2961;47.702;9.410;2022-08-19T13:56:52;56.03;;;40.93;;
5869;SDS011;2961;47.702;9.410;2022-08-19T13:59:19;59.87;;;41.80;;
5869;SDS011;2961;47.702;9.410;2022-08-19T14:01:47;58.33;;;38.57;;
5869;SDS011;2961;47.702;9.410;2022-08-19T14:04:14;53.47;;;38.70;;
5869;SDS011;2961;47.702;9.410;2022-08-19T14:06:41;64.17;;;42.20;;
5869;SDS011;2961;47.702;9.410;2022-08-19T14:09:08;57.67;;;40.20;;
5869;SDS011;2961;47.702;9.410;2022-08-19T14:11:35;57.07;;;40.70;;
5869;SDS011;2961;47.702;9.410;2022-08-19T14:14:03;61.90;;;42.33;;
5869;SDS011;2961;47.702;9.410;2022-08-19T14:16:29;62.23;;;42.80;;
5869;SDS011;2961;47.702;9.410;2022-08-19T14:18:58;61.57;;;40.73;;
5869;SDS011;2961;47.702;9.410;2022-08-19T14:21:25;61.63;;;41.20;;
5869;SDS011;2961;47.702;9.410;2022-08-19T14:23:52;61.63;;;42.20;;
5869;SDS011;2961;47.702;9.410;2022-08-19T14:26:19;68.30;;;45.73;;
5869;SDS011;2961;47.702;9.410;2022-08-19T14:28:47;59.53;;;42.07;;
5869;SDS011;2961;47.702;9.410;2022-08-19T14:31:15;62.90;;;40.73;;
5869;SDS011;2961;47.702;9.410;2022-08-19T14:33:44;66.33;;;43.93;;
5869;SDS011;2961;47.702;9.410;2022-08-19T14:36:13;66.57;;;48.38;;
5869;SDS011;2961;47.702;9.410;2022-08-19T14:38:40;66.10;;;46.00;;
5869;SDS011;2961;47.702;9.410;2022-08-19T14:41:08;61.77;;;42.83;;
5869;SDS011;2961;47.702;9.410;2022-08-19T14:43:38;58.00;;;38.50;;
5869;SDS011;2961;47.702;9.410;2022-08-19T14:46:05;60.57;;;43.60;;
5869;SDS011;2961;47.702;9.410;2022-08-19T14:48:33;60.57;;;41.10;;
5869;SDS011;2961;47.702;9.410;2022-08-19T14:51:01;69.40;;;42.83;;
5869;SDS011;2961;47.702;9.410;2022-08-19T14:53:29;56.60;;;41.00;;
5869;SDS011;2961;47.702;9.410;2022-08-19T14:55:58;54.43;;;40.07;;
5869;SDS011;2961;47.702;9.410;2022-08-19T14:58:26;60.20;;;43.40;;